createdAt,value
2023-04-02T00:02:01.470Z,21.69
2023-04-02T00:04:28.393Z,21.63
2023-04-02T00:06:55.338Z,21.56
2023-04-02T00:09:22.266Z,21.56
2023-04-02T00:11:49.184Z,21.50
2023-04-02T00:14:16.121Z,21.50
2023-04-02T00:16:43.102Z,21.44
2023-04-02T00:19:10.038Z,21.38
2023-04-02T00:21:38.228Z,21.38
2023-04-02T00:24:06.414Z,21.31
2023-04-02T00:26:33.347Z,21.25
2023-04-02T00:29:00.272Z,21.25
2023-04-02T00:31:27.252Z,21.25
2023-04-02T00:33:54.265Z,21.19
2023-04-02T00:36:21.237Z,21.13
2023-04-02T00:38:48.900Z,21.13
2023-04-02T00:41:15.907Z,21.06
2023-04-02T00:43:42.822Z,21.06
2023-04-02T00:46:09.794Z,21.00
2023-04-02T00:48:36.786Z,21.00
2023-04-02T00:51:03.709Z,20.94
2023-04-02T00:53:30.627Z,20.94
2023-04-02T00:55:57.550Z,20.88
2023-04-02T00:58:24.460Z,20.88
2023-04-02T01:00:51.373Z,20.81
2023-04-02T01:03:18.502Z,20.81
2023-04-02T01:05:45.743Z,20.75
2023-04-02T01:08:12.674Z,20.75
2023-04-02T01:10:39.596Z,20.75
2023-04-02T01:13:06.534Z,20.69
2023-04-02T01:15:33.594Z,20.69
2023-04-02T01:18:00.740Z,20.69
2023-04-02T01:20:27.720Z,20.63
2023-04-02T01:22:54.657Z,20.63
2023-04-02T01:25:21.564Z,20.56
2023-04-02T01:27:48.473Z,20.56
2023-04-02T01:30:15.388Z,20.50
2023-04-02T01:32:42.323Z,20.50
2023-04-02T01:35:09.297Z,20.50
2023-04-02T01:37:36.231Z,20.44
2023-04-02T01:40:03.174Z,20.44
2023-04-02T01:42:30.084Z,20.38
2023-04-02T01:44:57.003Z,20.38
2023-04-02T01:47:23.928Z,20.38
2023-04-02T01:49:50.818Z,20.31
2023-04-02T01:52:17.805Z,20.31
2023-04-02T01:54:44.759Z,20.31
2023-04-02T01:57:11.764Z,20.25
2023-04-02T01:59:38.697Z,20.25
2023-04-02T02:02:05.697Z,20.19
2023-04-02T02:04:32.634Z,20.19
2023-04-02T02:06:59.544Z,20.19
2023-04-02T02:09:26.453Z,20.13
2023-04-02T02:11:53.383Z,20.13
2023-04-02T02:14:20.308Z,20.13
2023-04-02T02:16:47.292Z,20.06
2023-04-02T02:19:14.235Z,20.06
2023-04-02T02:21:41.146Z,20.06
2023-04-02T02:24:08.057Z,20.06
2023-04-02T02:26:34.982Z,20.00
2023-04-02T02:29:01.911Z,20.00
2023-04-02T02:31:28.874Z,19.94
2023-04-02T02:33:55.859Z,19.94
2023-04-02T02:36:22.986Z,19.94
2023-04-02T02:38:50.042Z,19.94
2023-04-02T02:41:16.959Z,19.88
2023-04-02T02:43:43.878Z,19.88
2023-04-02T02:46:10.823Z,19.88
2023-04-02T02:48:37.780Z,19.81
2023-04-02T02:51:04.703Z,19.81
2023-04-02T02:53:31.615Z,19.81
2023-04-02T02:55:58.536Z,19.75
2023-04-02T02:58:25.513Z,19.75
2023-04-02T03:00:52.439Z,19.75
2023-04-02T03:03:19.510Z,19.75
2023-04-02T03:05:46.515Z,19.69
2023-04-02T03:08:13.463Z,19.69
2023-04-02T03:10:40.388Z,19.69
2023-04-02T03:13:07.364Z,19.69
2023-04-02T03:15:34.511Z,19.63
2023-04-02T03:18:01.738Z,19.63
2023-04-02T03:20:28.740Z,19.63
2023-04-02T03:22:55.665Z,19.56
2023-04-02T03:25:22.593Z,19.56
2023-04-02T03:27:49.529Z,19.56
2023-04-02T03:30:16.484Z,19.56
2023-04-02T03:32:43.454Z,19.50
2023-04-02T03:35:10.400Z,19.50
2023-04-02T03:37:37.317Z,19.50
2023-04-02T03:40:04.231Z,19.50
2023-04-02T03:42:31.140Z,20.25
2023-04-02T03:44:58.054Z,20.69
2023-04-02T03:47:25.012Z,20.94
2023-04-02T03:49:51.936Z,20.94
2023-04-02T03:52:18.835Z,21.00
2023-04-02T03:54:53.180Z,20.94
2023-04-02T03:57:21.286Z,20.94
2023-04-02T03:59:48.238Z,20.94
2023-04-02T04:02:15.201Z,20.94
2023-04-02T04:04:42.168Z,20.94
2023-04-02T04:07:09.137Z,20.94
2023-04-02T04:09:36.118Z,20.94
2023-04-02T04:12:03.010Z,20.94
2023-04-02T04:14:29.934Z,23.13
2023-04-02T04:16:56.937Z,30.56
2023-04-02T04:19:23.912Z,33.63
2023-04-02T04:21:50.825Z,32.88
2023-04-02T04:24:17.731Z,32.00
2023-04-02T04:26:44.688Z,30.06
2023-04-02T04:29:11.608Z,26.44
2023-04-02T04:31:38.551Z,26.31
2023-04-02T04:34:05.542Z,31.50
2023-04-02T04:36:32.483Z,34.19
2023-04-02T04:38:59.437Z,34.63
2023-04-02T04:41:26.776Z,33.88
2023-04-02T04:43:53.695Z,31.69
2023-04-02T04:46:20.644Z,29.44
2023-04-02T04:48:47.574Z,30.19
2023-04-02T04:51:14.593Z,33.81
2023-04-02T04:53:41.508Z,35.19
2023-04-02T04:56:18.738Z,35.56
2023-04-02T04:58:46.608Z,34.56
2023-04-02T05:01:13.533Z,33.63
2023-04-02T05:03:40.453Z,33.75
2023-04-02T05:06:07.399Z,35.13
2023-04-02T05:08:34.307Z,35.69
2023-04-02T05:11:01.313Z,36.00
2023-04-02T05:13:28.247Z,36.38
2023-04-02T05:15:55.227Z,36.63
2023-04-02T05:18:22.449Z,36.94
2023-04-02T05:20:49.380Z,37.19
2023-04-02T05:23:16.310Z,37.50
2023-04-02T05:25:43.217Z,37.50
2023-04-02T05:28:10.137Z,37.44
2023-04-02T05:30:37.052Z,37.50
2023-04-02T05:33:03.999Z,37.44
2023-04-02T05:35:30.953Z,37.38
2023-04-02T05:37:57.889Z,37.44
2023-04-02T05:40:24.809Z,37.56
2023-04-02T05:42:51.749Z,37.44
2023-04-02T05:45:18.652Z,37.38
2023-04-02T05:47:45.577Z,37.38
2023-04-02T05:50:12.549Z,37.31
2023-04-02T05:52:39.494Z,37.19
2023-04-02T05:55:06.412Z,37.00
2023-04-02T05:57:43.828Z,36.81
2023-04-02T06:00:16.575Z,36.69
2023-04-02T06:02:43.545Z,36.50
2023-04-02T06:05:10.506Z,36.31
2023-04-02T06:07:37.419Z,36.19
2023-04-02T06:10:04.322Z,36.00
2023-04-02T06:12:31.239Z,36.00
2023-04-02T06:14:58.237Z,36.06
2023-04-02T06:17:25.221Z,36.13
2023-04-02T06:19:52.173Z,36.13
2023-04-02T06:22:19.066Z,36.19
2023-04-02T06:24:45.982Z,36.31
2023-04-02T06:27:12.885Z,36.38
2023-04-02T06:29:39.907Z,36.50
2023-04-02T06:32:06.919Z,36.56
2023-04-02T06:34:33.833Z,36.63
2023-04-02T06:37:00.835Z,36.63
2023-04-02T06:39:27.761Z,36.50
2023-04-02T06:41:54.656Z,36.38
2023-04-02T06:44:21.593Z,36.25
2023-04-02T06:46:50.027Z,36.06
2023-04-02T06:49:18.749Z,36.06
2023-04-02T06:51:45.686Z,36.06
2023-04-02T06:54:12.607Z,35.88
2023-04-02T06:56:39.523Z,35.06
2023-04-02T06:59:06.440Z,35.38
2023-04-02T07:01:33.412Z,35.88
2023-04-02T07:04:00.378Z,36.13
2023-04-02T07:06:27.314Z,36.25
2023-04-02T07:08:54.212Z,36.44
2023-04-02T07:11:21.153Z,36.56
2023-04-02T07:13:48.086Z,36.69
2023-04-02T07:16:15.072Z,36.81
2023-04-02T07:18:42.138Z,36.94
2023-04-02T07:21:09.111Z,37.06
2023-04-02T07:23:36.036Z,37.13
2023-04-02T07:26:02.946Z,37.19
2023-04-02T07:28:29.875Z,37.13
2023-04-02T07:30:56.800Z,37.00
2023-04-02T07:33:23.750Z,36.88
2023-04-02T07:35:50.847Z,36.75
2023-04-02T07:38:17.838Z,36.63
2023-04-02T07:40:44.747Z,36.50
2023-04-02T07:43:11.693Z,36.31
2023-04-02T07:45:38.814Z,36.38
2023-04-02T07:48:05.881Z,36.44
2023-04-02T07:50:32.903Z,36.50
2023-04-02T07:52:59.817Z,36.56
2023-04-02T07:55:26.724Z,36.63
2023-04-02T07:57:53.661Z,36.75
2023-04-02T08:00:20.578Z,36.88
2023-04-02T08:02:47.556Z,36.94
2023-04-02T08:05:14.515Z,36.94
2023-04-02T08:07:41.444Z,36.81
2023-04-02T08:10:08.360Z,36.63
2023-04-02T08:12:35.282Z,36.50
2023-04-02T08:15:02.226Z,36.38
2023-04-02T08:17:29.218Z,36.25
2023-04-02T08:19:56.184Z,36.06
2023-04-02T08:22:23.096Z,35.94
2023-04-02T08:24:50.028Z,36.06
2023-04-02T08:27:17.057Z,36.25
2023-04-02T08:29:43.970Z,36.31
2023-04-02T08:32:10.905Z,36.44
2023-04-02T08:34:37.809Z,36.56
2023-04-02T08:37:04.727Z,36.69
2023-04-02T08:39:31.677Z,36.81
2023-04-02T08:41:58.617Z,36.88
2023-04-02T08:44:25.597Z,36.94
2023-04-02T08:46:52.517Z,36.94
2023-04-02T08:49:19.416Z,36.88
2023-04-02T08:51:46.338Z,36.81
2023-04-02T08:54:13.257Z,36.63
2023-04-02T08:56:40.157Z,36.50
2023-04-02T08:59:07.080Z,36.38
2023-04-02T09:01:34.038Z,36.25
2023-04-02T09:04:01.007Z,36.19
2023-04-02T09:06:27.923Z,36.25
2023-04-02T09:08:54.858Z,36.44
2023-04-02T09:11:21.752Z,36.56
2023-04-02T09:13:48.695Z,36.69
2023-04-02T09:16:15.644Z,36.75
2023-04-02T09:18:42.655Z,36.88
2023-04-02T09:21:09.659Z,37.00
2023-04-02T09:23:36.581Z,37.13
2023-04-02T09:26:04.848Z,37.25
2023-04-02T09:28:31.993Z,37.38
2023-04-02T09:30:58.933Z,37.50
2023-04-02T09:33:25.882Z,37.56
2023-04-02T09:35:52.832Z,37.50
2023-04-02T09:38:19.840Z,37.38
2023-04-02T09:40:46.849Z,37.25
2023-04-02T09:43:13.796Z,37.13
2023-04-02T09:45:40.723Z,37.00
2023-04-02T09:48:07.690Z,36.88
2023-04-02T09:50:34.668Z,36.81
2023-04-02T09:53:01.579Z,36.88
2023-04-02T09:55:28.513Z,37.00
2023-04-02T09:57:55.440Z,37.13
2023-04-02T10:00:31.400Z,37.19
2023-04-02T10:02:59.652Z,37.31
2023-04-02T10:05:39.439Z,37.50
2023-04-02T10:08:07.803Z,37.63
2023-04-02T10:10:34.871Z,37.75
2023-04-02T10:13:01.941Z,37.81
2023-04-02T10:15:28.836Z,37.75
2023-04-02T10:17:58.103Z,37.75
2023-04-02T10:20:26.431Z,37.75
2023-04-02T10:22:54.531Z,37.69
2023-04-02T10:25:21.458Z,37.56
2023-04-02T10:27:50.309Z,37.38
2023-04-02T10:30:17.211Z,37.25
2023-04-02T10:32:44.156Z,37.13
2023-04-02T10:35:12.228Z,36.94
2023-04-02T10:37:39.153Z,36.81
2023-04-02T10:40:07.977Z,36.63
2023-04-02T10:42:34.885Z,36.69
2023-04-02T10:45:01.815Z,36.81
2023-04-02T10:47:28.800Z,36.88
2023-04-02T10:49:55.759Z,36.88
2023-04-02T10:52:22.668Z,36.94
2023-04-02T10:54:49.607Z,37.06
2023-04-02T10:57:16.635Z,37.19
2023-04-02T10:59:43.623Z,37.31
2023-04-02T11:02:10.520Z,37.38
2023-04-02T11:04:37.426Z,37.31
2023-04-02T11:07:13.674Z,37.19
2023-04-02T11:09:41.849Z,37.06
2023-04-02T11:12:08.773Z,36.94
2023-04-02T11:14:35.712Z,36.81
2023-04-02T11:17:02.611Z,36.69
2023-04-02T11:19:29.590Z,36.50
2023-04-02T11:22:00.324Z,36.44
2023-04-02T11:24:27.903Z,36.56
2023-04-02T11:26:54.822Z,36.69
2023-04-02T11:29:21.721Z,36.75
2023-04-02T11:31:48.713Z,36.81
2023-04-02T11:34:15.723Z,36.88
2023-04-02T11:36:42.643Z,36.94
2023-04-02T11:39:17.032Z,37.00
2023-04-02T11:41:44.720Z,37.13
2023-04-02T11:44:11.646Z,37.19
2023-04-02T11:46:38.599Z,37.31
2023-04-02T11:49:05.572Z,37.38
2023-04-02T11:51:32.568Z,37.31
2023-04-02T11:53:59.648Z,37.19
2023-04-02T11:56:26.584Z,37.06
2023-04-02T11:58:53.516Z,36.94
2023-04-02T12:01:20.439Z,36.81
2023-04-02T12:03:47.367Z,36.69
2023-04-02T12:06:14.285Z,36.50
2023-04-02T12:08:54.227Z,36.38
2023-04-02T12:11:22.721Z,36.44
2023-04-02T12:13:49.630Z,36.44
2023-04-02T12:16:16.713Z,36.56
2023-04-02T12:18:43.730Z,36.63
2023-04-02T12:21:10.635Z,36.69
2023-04-02T12:23:37.562Z,36.81
2023-04-02T12:26:04.469Z,36.88
2023-04-02T12:28:31.467Z,37.00
2023-04-02T12:30:58.446Z,37.06
2023-04-02T12:33:25.393Z,37.06
2023-04-02T12:35:52.360Z,37.00
2023-04-02T12:38:19.312Z,36.88
2023-04-02T12:40:46.238Z,36.75
2023-04-02T12:43:13.207Z,36.63
2023-04-02T12:45:40.120Z,36.50
2023-04-02T12:48:07.129Z,36.31
2023-04-02T12:50:34.547Z,36.19
2023-04-02T12:53:01.847Z,36.19
2023-04-02T12:55:28.841Z,36.31
2023-04-02T12:57:55.816Z,36.38
2023-04-02T13:00:22.757Z,36.50
2023-04-02T13:02:49.702Z,36.56
2023-04-02T13:05:16.643Z,36.69
2023-04-02T13:07:43.589Z,36.75
2023-04-02T13:10:10.509Z,36.88
2023-04-02T13:12:37.438Z,36.94
2023-04-02T13:15:04.361Z,37.06
2023-04-02T13:17:31.351Z,37.06
2023-04-02T13:19:58.275Z,37.00
2023-04-02T13:22:25.184Z,36.88
2023-04-02T13:24:52.081Z,36.75
2023-04-02T13:27:19.650Z,36.63
2023-04-02T13:29:46.668Z,36.50
2023-04-02T13:32:13.578Z,36.38
2023-04-02T13:34:40.530Z,35.94
2023-04-02T13:37:07.454Z,35.56
2023-04-02T13:39:34.386Z,35.88
2023-04-02T13:42:01.301Z,36.06
2023-04-02T13:44:28.205Z,36.19
2023-04-02T13:46:55.139Z,36.25
2023-04-02T13:49:22.055Z,36.38
2023-04-02T13:51:48.965Z,36.50
2023-04-02T13:54:15.877Z,36.56
2023-04-02T13:56:42.815Z,36.56
2023-04-02T13:59:09.761Z,36.50
2023-04-02T14:01:36.778Z,36.31
2023-04-02T14:04:03.815Z,36.19
2023-04-02T14:06:30.782Z,36.06
2023-04-02T14:08:57.687Z,36.00
2023-04-02T14:11:24.641Z,36.00
2023-04-02T14:13:51.621Z,36.06
2023-04-02T14:16:18.644Z,35.94
2023-04-02T14:18:45.590Z,36.13
2023-04-02T14:21:12.504Z,36.19
2023-04-02T14:23:39.417Z,36.31
2023-04-02T14:26:06.316Z,36.44
2023-04-02T14:28:33.220Z,36.56
2023-04-02T14:31:00.226Z,36.69
2023-04-02T14:33:27.258Z,36.81
2023-04-02T14:35:54.185Z,36.94
2023-04-02T14:38:21.127Z,37.06
2023-04-02T14:40:48.054Z,37.13
2023-04-02T14:43:14.985Z,37.25
2023-04-02T14:45:41.969Z,37.31
2023-04-02T14:48:09.016Z,37.25
2023-04-02T14:50:36.174Z,37.13
2023-04-02T14:53:03.272Z,37.06
2023-04-02T14:55:30.204Z,36.94
2023-04-02T14:57:57.115Z,36.81
2023-04-02T15:00:24.086Z,36.69
2023-04-02T15:02:51.098Z,36.56
2023-04-02T15:05:18.219Z,36.31
2023-04-02T15:07:45.127Z,36.31
2023-04-02T15:10:12.081Z,36.38
2023-04-02T15:12:39.047Z,36.44
2023-04-02T15:15:05.990Z,36.50
2023-04-02T15:17:32.944Z,36.56
2023-04-02T15:19:59.900Z,36.69
2023-04-02T15:22:26.815Z,36.75
2023-04-02T15:24:53.736Z,36.69
2023-04-02T15:27:25.181Z,36.63
2023-04-02T15:29:52.795Z,36.44
2023-04-02T15:32:19.748Z,36.31
2023-04-02T15:34:46.667Z,36.13
2023-04-02T15:37:13.730Z,36.00
2023-04-02T15:39:40.661Z,36.00
2023-04-02T15:42:07.581Z,36.00
2023-04-02T15:44:34.502Z,36.00
2023-04-02T15:47:01.486Z,36.00
2023-04-02T15:49:28.419Z,36.06
2023-04-02T15:51:55.398Z,36.13
2023-04-02T15:54:22.330Z,36.25
2023-04-02T15:56:49.362Z,36.31
2023-04-02T15:59:16.437Z,36.44
2023-04-02T16:01:43.367Z,36.56
2023-04-02T16:04:10.354Z,36.63
2023-04-02T16:06:37.338Z,36.75
2023-04-02T16:09:04.258Z,36.75
2023-04-02T16:11:31.168Z,36.69
2023-04-02T16:13:58.105Z,36.56
2023-04-02T16:16:25.096Z,36.44
2023-04-02T16:18:52.084Z,36.31
2023-04-02T16:21:19.064Z,36.19
2023-04-02T16:23:45.975Z,36.06
2023-04-02T16:26:12.885Z,36.13
2023-04-02T16:28:39.819Z,36.25
2023-04-02T16:31:07.027Z,36.56
2023-04-02T16:33:34.001Z,36.75
2023-04-02T16:36:00.997Z,36.88
2023-04-02T16:38:27.979Z,37.00
2023-04-02T16:41:06.775Z,37.19
2023-04-02T16:43:35.090Z,37.38
2023-04-02T16:46:02.020Z,37.50
2023-04-02T16:48:28.978Z,37.63
2023-04-02T16:50:55.904Z,37.75
2023-04-02T16:53:22.820Z,37.88
2023-04-02T16:55:49.728Z,37.81
2023-04-02T16:58:16.660Z,37.63
2023-04-02T17:00:43.631Z,37.63
2023-04-02T17:03:10.734Z,37.63
2023-04-02T17:05:37.737Z,37.56
2023-04-02T17:08:04.665Z,37.44
2023-04-02T17:10:31.603Z,37.25
2023-04-02T17:12:58.528Z,37.13
2023-04-02T17:15:28.339Z,36.94
2023-04-02T17:17:55.740Z,36.81
2023-04-02T17:20:22.715Z,36.63
2023-04-02T17:22:49.650Z,36.50
2023-04-02T17:25:16.582Z,36.38
2023-04-02T17:27:43.524Z,36.44
2023-04-02T17:30:10.475Z,36.50
2023-04-02T17:32:37.437Z,36.56
2023-04-02T17:35:04.356Z,36.63
2023-04-02T17:37:31.260Z,36.75
2023-04-02T17:39:58.202Z,36.88
2023-04-02T17:42:25.106Z,36.94
2023-04-02T17:44:52.059Z,37.06
2023-04-02T17:47:18.985Z,37.13
2023-04-02T17:49:45.917Z,37.06
2023-04-02T17:52:12.832Z,36.94
2023-04-02T17:54:39.752Z,36.81
2023-04-02T17:57:06.689Z,36.69
2023-04-02T17:59:33.645Z,36.56
2023-04-02T18:02:00.618Z,36.44
2023-04-02T18:04:27.583Z,36.50
2023-04-02T18:06:54.505Z,36.44
2023-04-02T18:09:21.432Z,36.44
2023-04-02T18:11:48.358Z,36.56
2023-04-02T18:14:15.288Z,36.69
2023-04-02T18:16:42.264Z,36.75
2023-04-02T18:19:09.200Z,36.81
2023-04-02T18:21:36.125Z,37.00
2023-04-02T18:24:03.056Z,37.13
2023-04-02T18:26:30.054Z,37.25
2023-04-02T18:28:56.968Z,37.44
2023-04-02T18:31:23.921Z,37.56
2023-04-02T18:33:50.880Z,37.69
2023-04-02T18:36:17.843Z,37.81
2023-04-02T18:38:44.788Z,37.94
2023-04-02T18:41:11.739Z,38.00
2023-04-02T18:43:38.715Z,37.94
2023-04-02T18:46:05.811Z,37.81
2023-04-02T18:48:32.779Z,37.69
2023-04-02T18:50:59.707Z,37.56
2023-04-02T18:53:26.624Z,37.44
2023-04-02T18:55:53.527Z,37.31
2023-04-02T18:58:20.448Z,37.19
2023-04-02T19:00:47.362Z,37.19
2023-04-02T19:03:14.357Z,37.13
2023-04-02T19:05:41.394Z,36.88
2023-04-02T19:08:08.308Z,36.56
2023-04-02T19:10:35.263Z,36.19
2023-04-02T19:13:02.197Z,35.88
2023-04-02T19:15:29.161Z,35.56
2023-04-02T19:17:56.132Z,35.25
2023-04-02T19:20:23.057Z,34.94
2023-04-02T19:22:49.996Z,34.63
2023-04-02T19:25:16.929Z,34.31
2023-04-02T19:27:43.870Z,34.06
2023-04-02T19:30:10.780Z,33.75
2023-04-02T19:32:37.812Z,33.44
2023-04-02T19:35:04.790Z,33.19
2023-04-02T19:37:31.702Z,32.94
2023-04-02T19:39:58.610Z,32.69
2023-04-02T19:42:25.533Z,32.44
2023-04-02T19:44:52.446Z,32.19
2023-04-02T19:47:19.339Z,31.94
2023-04-02T19:49:46.257Z,31.75
2023-04-02T19:52:13.197Z,31.50
2023-04-02T19:54:40.144Z,31.31
2023-04-02T19:57:07.130Z,31.13
2023-04-02T19:59:34.110Z,30.88
2023-04-02T20:02:01.045Z,30.69
2023-04-02T20:04:28.084Z,30.50
2023-04-02T20:06:55.087Z,30.31
2023-04-02T20:09:22.002Z,30.13
2023-04-02T20:11:48.958Z,30.00
2023-04-02T20:14:15.901Z,29.81
2023-04-02T20:16:44.534Z,29.63
2023-04-02T20:19:12.655Z,29.50
2023-04-02T20:21:39.580Z,29.31
2023-04-02T20:24:06.525Z,29.19
2023-04-02T20:26:33.445Z,29.00
2023-04-02T20:29:00.372Z,28.88
2023-04-02T20:31:27.395Z,28.75
2023-04-02T20:33:54.700Z,28.56
2023-04-02T20:36:21.733Z,28.44
2023-04-02T20:38:48.675Z,28.31
2023-04-02T20:41:15.634Z,28.19
2023-04-02T20:43:42.644Z,28.00
2023-04-02T20:46:11.673Z,27.88
2023-04-02T20:48:39.247Z,27.75
2023-04-02T20:51:06.176Z,27.63
2023-04-02T20:53:33.105Z,27.50
2023-04-02T20:56:00.116Z,27.38
2023-04-02T20:58:27.008Z,27.25
2023-04-02T21:00:53.947Z,27.06
2023-04-02T21:03:20.880Z,26.94
2023-04-02T21:05:47.840Z,26.81
2023-04-02T21:08:14.859Z,26.63
2023-04-02T21:10:41.751Z,26.44
2023-04-02T21:13:08.687Z,26.31
2023-04-02T21:15:35.861Z,26.19
2023-04-02T21:18:02.925Z,26.13
2023-04-02T21:20:29.912Z,26.06
2023-04-02T21:22:56.836Z,26.00
2023-04-02T21:25:23.759Z,25.88
2023-04-02T21:27:50.717Z,25.81
2023-04-02T21:30:17.744Z,25.69
2023-04-02T21:32:44.689Z,25.56
2023-04-02T21:35:11.608Z,25.44
2023-04-02T21:37:38.554Z,25.31
2023-04-02T21:40:05.483Z,25.19
2023-04-02T21:42:32.455Z,25.13
2023-04-02T21:44:59.357Z,25.00
2023-04-02T21:47:26.309Z,24.88
2023-04-02T21:49:53.191Z,24.75
2023-04-02T21:52:20.123Z,24.69
2023-04-02T21:54:47.031Z,24.56
2023-04-02T21:57:13.964Z,24.44
2023-04-02T21:59:40.892Z,24.31
2023-04-02T22:02:07.780Z,24.25
2023-04-02T22:04:34.698Z,24.13
2023-04-02T22:07:01.620Z,24.06
2023-04-02T22:09:28.526Z,23.94
2023-04-02T22:11:55.569Z,23.81
2023-04-02T22:14:22.578Z,23.75
2023-04-02T22:16:49.512Z,23.69
2023-04-02T22:19:16.481Z,23.56
2023-04-02T22:21:43.400Z,23.50
2023-04-02T22:24:10.342Z,23.38
2023-04-02T22:26:37.278Z,23.31
2023-04-02T22:29:04.318Z,23.19
2023-04-02T22:31:31.547Z,23.13
2023-04-02T22:33:58.706Z,23.06
2023-04-02T22:36:25.632Z,23.00
2023-04-02T22:38:52.589Z,22.88
2023-04-02T22:41:19.529Z,22.81
2023-04-02T22:43:46.466Z,22.75
2023-04-02T22:46:13.420Z,22.69
2023-04-02T22:48:40.366Z,22.63
2023-04-02T22:51:07.273Z,22.56
2023-04-02T22:53:34.181Z,22.44
2023-04-02T22:56:01.115Z,22.38
2023-04-02T22:58:28.035Z,22.31
2023-04-02T23:00:54.944Z,22.25
2023-04-02T23:03:21.855Z,22.19
2023-04-02T23:05:48.785Z,22.13
2023-04-02T23:08:15.729Z,22.06
2023-04-02T23:10:42.657Z,22.00
2023-04-02T23:13:09.556Z,21.94
2023-04-02T23:15:36.523Z,21.88
2023-04-02T23:18:03.520Z,21.81
2023-04-02T23:20:30.518Z,21.75
2023-04-02T23:22:57.469Z,21.69
2023-04-02T23:25:24.407Z,21.69
2023-04-02T23:27:51.311Z,21.63
2023-04-02T23:30:18.240Z,21.56
2023-04-02T23:32:45.198Z,21.50
2023-04-02T23:35:12.107Z,21.44
2023-04-02T23:37:39.051Z,21.38
2023-04-02T23:40:05.976Z,21.31
2023-04-02T23:42:32.904Z,21.31
2023-04-02T23:44:59.833Z,21.25
2023-04-02T23:47:26.775Z,21.19
2023-04-02T23:49:53.790Z,21.13
2023-04-02T23:52:20.724Z,21.13
2023-04-02T23:54:47.670Z,21.06
2023-04-02T23:57:14.612Z,21.00
2023-04-02T23:59:41.553Z,20.94
